• Join FlightAware (Why Join?)
  • Login
  • US Flag 
12:21AM EDT


 

Airport Tracker/Info


-or-


 

Live Flight TrackerFlight Track Log ✈ UAL1635 ✈ 04-May-2013 ✈ KSFO - KEWR

Flight Track Log - Related Links

Times and Time Zones

All times are in EDT time to prevent confusion due to time zone crossing. See the UAL1635 flight status page for this flight to view local times or setup timezone preferences in your user account.

Time Position Orientation Groundspeed Altitude Reporting Facility
EDT Latitude Longitude Course Direction KTS MPH feet Rate Location/Type
01:37AM 37.7160 -122.3750 349° North 255 293 4,200  Level FlightAware
01:37AM 37.7470 -122.3790 354° North 276 318 5,000 2,220 Climbing FlightAware
01:38AM 37.7730 -122.3800 358° North 282 325 5,900 2,700 Climbing FlightAware
01:38AM 37.8000 -122.3800 360° North 288 331 6,800 2,520 Climbing FlightAware
01:39AM 37.8360 -122.3620 22° Northeast 292 336 8,000 2,220 Climbing FlightAware
01:39AM 37.8470 -122.3400 58° Northeast 298 343 8,500 2,400 Climbing FlightAware
01:39AM 37.8550 -122.2990 76° East 298 343 9,600 2,220 Climbing FlightAware
01:40AM 37.8690 -122.2180 78° East 319 367 11,100 1,500 Climbing FlightAware
01:41AM 37.8830 -122.1390 77° East 361 415 11,800 1,440 Climbing FlightAware
01:41AM 37.8990 -122.0450 78° East 381 438 13,200 1,800 Climbing FlightAware
01:42AM 37.9150 -121.9540 77° East 403 464 14,400 1,800 Climbing FlightAware
01:43AM 37.9310 -121.8610 78° East 416 479 15,600 1,860 Climbing FlightAware
01:43AM 37.9490 -121.7530 78° East 426 490 17,100 1,920 Climbing FlightAware
01:44AM 37.9660 -121.6540 78° East 433 498 18,400 1,800 Climbing FlightAware
01:45AM 37.9850 -121.5410 78° East 442 509 19,700 1,680 Climbing FlightAware
01:46AM 38.0030 -121.4390 77° East 448 516 20,800 1,620 Climbing FlightAware
01:46AM 38.0220 -121.3250 78° East 455 524 22,000 1,440 Climbing FlightAware
01:47AM 38.0400 -121.2150 78° East 464 534 22,900 1,380 Climbing FlightAware
01:48AM 38.0580 -121.1070 78° East 470 541 23,900 1,320 Climbing FlightAware
01:48AM 38.0790 -120.9880 77° East 477 549 24,800 1,080 Climbing FlightAware
01:49AM 38.1050 -120.8790 73° East 485 558 25,500 900 Climbing FlightAware
01:50AM 38.1350 -120.7530 73° East 494 568 26,100 840 Climbing FlightAware
01:50AM 38.1620 -120.6420 73° East 503 579 26,700 960 Climbing FlightAware
01:51AM 38.1890 -120.5290 73° East 505 581 27,400 1,200 Climbing FlightAware
01:52AM 38.2160 -120.4160 73° East 503 579 28,300 1,560 Climbing FlightAware
01:53AM 38.2540 -120.2530 73° East 485 558 30,000 1,560 Climbing FlightAware
01:53AM 38.2810 -120.1400 73° East 480 552 30,900 660 Climbing FlightAware
01:54AM 38.3090 -120.0210 73° East 483 556 31,000 60 Climbing FlightAware
01:55AM 38.3310 -119.9230 74° East 486 559 31,000  Level FlightAware
01:56AM 38.3600 -119.8000 73° East 489 563 31,000  Level FlightAware
01:56AM 38.3830 -119.7030 73° East 489 563 31,000  Level FlightAware
01:57AM 38.4050 -119.6090 73° East 489 563 31,000  Level FlightAware
01:58AM 38.4420 -119.4400 74° East 479 551 31,000  Level FlightAware
01:58AM 38.4670 -119.3300 74° East 483 556 31,000  Level FlightAware
01:59AM 38.4960 -119.2040 74° East 484 557 31,000  Level FlightAware
02:00AM 38.5220 -119.0870 74° East 484 557 31,000  Level FlightAware
02:01AM 38.5430 -118.9930 74° East 484 557 31,000  Level FlightAware
02:01AM 38.5640 -118.9000 74° East 484 557 31,000  Level FlightAware
02:02AM 38.5850 -118.8060 74° East 484 557 31,000  Level FlightAware
02:03AM 38.6060 -118.7120 74° East 484 557 31,000  Level FlightAware
02:04AM 38.6320 -118.5950 74° East 484 557 31,000  Level FlightAware
02:04AM 38.6530 -118.5010 74° East 484 557 31,000  Level FlightAware
02:05AM 38.6740 -118.4080 74° East 484 557 31,000  Level FlightAware
02:06AM 38.6950 -118.3140 74° East 484 557 31,000  Level FlightAware
02:06AM 38.7160 -118.2200 74° East 484 557 31,000  Level FlightAware
02:07AM 38.7370 -118.1260 74° East 484 557 31,000  Level FlightAware
02:08AM 38.7630 -118.0090 74° East 484 557 31,000  Level FlightAware
02:08AM 38.7840 -117.9150 74° East 484 557 31,000 1,980 Level FlightAware
02:09AM 38.6536 -117.5881 74° East 499 574 33,000 1,500 Climbing Salt Lake Center
02:10AM 38.6700 -117.4097 83° East 500 575 33,000  Level Salt Lake Center
02:11AM 38.6881 -117.2314 83° East 502 578 33,000  Level Salt Lake Center
02:12AM 38.7153 -117.0553 79° East 502 578 33,000  Level Salt Lake Center
02:13AM 38.7411 -116.8811 79° East 497 572 33,000  Level Salt Lake Center
02:14AM 38.7661 -116.7056 80° East 498 573 33,000  Level Salt Lake Center
02:15AM 38.7922 -116.5317 79° East 497 572 33,000  Level Salt Lake Center
02:16AM 38.8172 -116.3561 80° East 498 573 33,000  Level Salt Lake Center
02:17AM 38.8425 -116.1811 79° East 499 574 33,000  Level Salt Lake Center
02:18AM 38.8675 -116.0053 80° East 499 574 33,000  Level Salt Lake Center
02:19AM 38.8914 -115.8294 80° East 500 575 33,000  Level Salt Lake Center
02:20AM 38.9158 -115.6531 80° East 501 577 33,000  Level Salt Lake Center
02:21AM 38.9397 -115.4769 80° East 501 577 33,000  Level Salt Lake Center
02:22AM 38.9619 -115.3117 80° East 503 579 33,000  Level Salt Lake Center
02:23AM 38.9844 -115.1369 81° East 498 573 33,000  Level Salt Lake Center
02:24AM 39.0069 -114.9631 80° East 496 571 33,000  Level Salt Lake Center
02:25AM 39.0294 -114.7881 81° East 496 571 33,000  Level Salt Lake Center
02:26AM 39.0553 -114.6092 79° East 502 578 33,000  Level Salt Lake Center
02:27AM 39.0778 -114.4342 81° East 499 574 33,000  Level Salt Lake Center
02:28AM 39.0986 -114.2586 81° East 497 572 33,000  Level Salt Lake Center
02:29AM 39.1197 -114.0831 81° East 496 571 33,000  Level Salt Lake Center
02:30AM 39.1444 -113.9081 80° East 497 572 33,000  Level Salt Lake Center
02:31AM 39.1869 -113.7375 72° East 498 573 33,000  Level Salt Lake Center
02:32AM 39.2267 -113.5642 73° East 502 578 33,000  Level Salt Lake Center
02:33AM 39.2658 -113.3911 74° East 502 578 33,000  Level Salt Lake Center
02:34AM 39.3050 -113.2158 74° East 507 583 33,000  Level Salt Lake Center
02:39AM 39.5240 -112.2200 74° East 511 588 33,000  Level FlightAware
02:40AM 39.5510 -112.0950 74° East 511 588 33,000  Level FlightAware
02:41AM 39.5730 -111.9950 74° East 511 588 33,000  Level FlightAware
02:41AM 39.5950 -111.8950 74° East 511 588 33,000  Level FlightAware
02:42AM 39.6170 -111.7940 74° East 511 588 33,000  Level FlightAware
02:43AM 39.6390 -111.6940 74° East 511 588 33,000  Level FlightAware
02:43AM 39.6620 -111.5940 73° East 511 588 33,000  Level FlightAware
02:44AM 39.6890 -111.4680 74° East 511 588 33,000  Level FlightAware
02:45AM 39.7110 -111.3680 74° East 511 588 33,000  Level FlightAware
02:46AM 39.7340 -111.2670 73° East 511 588 33,000  Level FlightAware
02:46AM 39.7560 -111.1670 74° East 511 588 33,000  Level FlightAware
02:47AM 39.7830 -111.0410 74° East 511 588 33,000  Level FlightAware
02:49AM 39.8680 -110.5530 77° East 522 601 33,000  Level FlightAware
02:50AM 39.9020 -110.3840 75° East 522 601 33,000  Level FlightAware
02:50AM 39.9250 -110.2620 76° East 526 605 33,000  Level FlightAware
02:51AM 39.9510 -110.1350 75° East 526 605 33,000  Level FlightAware
02:52AM 39.9780 -109.9880 76° East 528 608 33,000  Level FlightAware
02:52AM 40.0010 -109.8680 76° East 522 601 33,000  Level FlightAware
02:53AM 40.0280 -109.7370 75° East 520 598 33,000  Level FlightAware
02:54AM 40.0490 -109.6340 75° East 520 598 33,000  Level FlightAware
02:54AM 40.0720 -109.4970 78° East 518 596 33,000  Level FlightAware
02:55AM 40.0990 -109.3540 76° East 517 595 33,000  Level FlightAware
02:56AM 40.1210 -109.2360 76° East 517 595 33,000  Level FlightAware
02:56AM 40.1390 -109.1380 76° East 517 595 33,000  Level FlightAware
02:57AM 40.1640 -109.0000 77° East 519 597 33,000  Level FlightAware
02:58AM 40.1980 -108.8180 76° East 520 598 33,000  Level FlightAware
02:59AM 40.2260 -108.6640 77° East 522 601 33,000  Level FlightAware
03:00AM 40.2490 -108.5460 76° East 522 601 33,000  Level FlightAware
03:00AM 40.2680 -108.4420 77° East 522 601 33,000  Level FlightAware
03:01AM 40.2880 -108.3380 76° East 522 601 33,000  Level FlightAware
03:03AM 40.3450 -107.9880 78° East 517 595 33,000  Level FlightAware
03:04AM 40.3810 -107.7800 77° East 517 595 33,000  Level FlightAware
03:04AM 40.3990 -107.6770 77° East 517 595 33,000  Level FlightAware
03:05AM 40.4170 -107.5730 77° East 517 595 33,000  Level FlightAware
03:06AM 40.4350 -107.4690 77° East 517 595 33,000  Level FlightAware
03:07AM 40.4684 -107.2640 78° East 518 596 33,000  Level FlightAware ADS-B
03:08AM 40.4960 -107.1050 77° East 518 596 33,000  Level FlightAware
03:08AM 40.5110 -107.0100 78° East 516 594 33,000  Level FlightAware
03:09AM 40.5420 -106.8180 78° East 516 594 33,000  Level FlightAware
03:10AM 40.5610 -106.6980 78° East 517 595 33,000  Level FlightAware
03:10AM 40.5790 -106.5850 78° East 517 595 33,000  Level FlightAware
03:11AM 40.6020 -106.4430 78° East 516 594 33,000  Level FlightAware
03:12AM 40.6200 -106.3310 78° East 517 595 33,000  Level FlightAware
03:12AM 40.6450 -106.1730 78° East 518 596 33,000  Level FlightAware
03:13AM 40.6640 -106.0520 78° East 518 596 33,000  Level FlightAware
03:14AM 40.6830 -105.9270 79° East 519 597 33,000  Level FlightAware
03:15AM 40.7040 -105.7900 79° East 519 597 33,000  Level FlightAware
03:15AM 40.7230 -105.6680 78° East 519 597 33,000  Level FlightAware
03:16AM 40.7440 -105.5250 79° East 517 595 33,000  Level FlightAware
03:16AM 40.7497 -105.4890 78° East 518 596 33,000  Level FlightAware ADS-B
03:17AM 40.7654 -105.3850 79° East 518 596 33,000  Level FlightAware ADS-B
03:17AM 40.7815 -105.2770 79° East 517 595 33,000  Level FlightAware ADS-B
03:18AM 40.7954 -105.1830 79° East 517 595 33,000  Level FlightAware ADS-B
03:18AM 40.8092 -105.0900 79° East 518 596 33,000  Level FlightAware ADS-B
03:19AM 40.8230 -104.9950 79° East 517 595 33,000  Level FlightAware ADS-B
03:19AM 40.8364 -104.9030 79° East 516 594 33,000  Level FlightAware ADS-B
03:20AM 40.8498 -104.8100 79° East 516 594 33,000  Level FlightAware ADS-B
03:20AM 40.8630 -104.7170 79° East 514 592 33,000  Level FlightAware ADS-B
03:21AM 40.8762 -104.6250 79° East 513 590 33,000  Level FlightAware ADS-B
03:21AM 40.8893 -104.5320 79° East 512 589 33,000  Level FlightAware ADS-B
03:22AM 40.9023 -104.4400 79° East 512 589 33,000  Level FlightAware ADS-B
03:22AM 40.9152 -104.3470 80° East 513 590 33,000  Level FlightAware ADS-B
03:23AM 40.9281 -104.2540 80° East 513 590 33,000  Level FlightAware ADS-B
03:23AM 40.9410 -104.1620 79° East 513 590 33,000  Level FlightAware ADS-B
03:24AM 40.9539 -104.0680 80° East 512 589 33,000  Level FlightAware ADS-B
03:24AM 40.9665 -103.9760 80° East 509 586 33,000  Level FlightAware ADS-B
03:25AM 40.9789 -103.8850 80° East 507 583 33,000  Level FlightAware ADS-B
03:25AM 40.9912 -103.7930 80° East 506 582 33,000  Level FlightAware ADS-B
03:26AM 41.0036 -103.7010 80° East 507 583 33,000  Level FlightAware ADS-B
03:26AM 41.0158 -103.6090 80° East 507 583 33,000  Level FlightAware ADS-B
03:27AM 41.0277 -103.5190 80° East 492 566 33,000  Level FlightAware ADS-B
03:27AM 41.0394 -103.4300 80° East 487 560 33,000  Level FlightAware ADS-B
03:28AM 41.0512 -103.3410 80° East 488 562 33,000  Level FlightAware ADS-B
03:28AM 41.0625 -103.2530 80° East 488 562 33,000  Level FlightAware ADS-B
03:29AM 41.0738 -103.1650 80° East 488 562 33,000  Level FlightAware ADS-B
03:29AM 41.0853 -103.0770 80° East 489 563 33,000  Level FlightAware ADS-B
03:30AM 41.0967 -102.9860 81° East 489 563 33,000  Level FlightAware ADS-B
03:30AM 41.1083 -102.8960 80° East 490 564 33,000 360 Level FlightAware ADS-B
03:31AM 41.1195 -102.8070 80° East 491 565 33,400 660 Climbing FlightAware ADS-B
03:31AM 41.1307 -102.7180 80° East 495 570 33,700 480 Climbing FlightAware ADS-B
03:32AM 41.1419 -102.6270 81° East 499 574 33,900 240 Climbing FlightAware ADS-B
03:32AM 41.1533 -102.5360 81° East 503 579 34,000 60 Climbing FlightAware ADS-B
03:33AM 41.1642 -102.4450 81° East 498 573 34,000  Level FlightAware ADS-B
03:33AM 41.1752 -102.3540 81° East 498 573 34,000  Level FlightAware ADS-B
03:34AM 41.1863 -102.2630 81° East 498 573 34,000  Level FlightAware ADS-B
03:34AM 41.1973 -102.1710 81° East 499 574 34,000  Level FlightAware ADS-B
03:35AM 41.2085 -102.0780 81° East 499 574 34,000  Level FlightAware ADS-B
03:35AM 41.2195 -101.9880 81° East 499 574 34,000  Level FlightAware ADS-B
03:36AM 41.2307 -101.8940 81° East 498 573 34,000  Level FlightAware ADS-B
03:36AM 41.2416 -101.8000 81° East 498 573 34,000  Level FlightAware ADS-B
03:37AM 41.2522 -101.7070 81° East 498 573 34,000  Level FlightAware ADS-B
03:37AM 41.2627 -101.6150 81° East 498 573 34,000  Level FlightAware ADS-B
03:38AM 41.2746 -101.5090 81° East 497 572 34,000  Level FlightAware ADS-B
03:39AM 41.2940 -101.3440 81° East 498 573 34,000  Level FlightAware
03:40AM 41.3060 -101.2410 81° East 498 573 34,000  Level FlightAware
03:40AM 41.3180 -101.1380 81° East 498 573 34,000  Level FlightAware
03:41AM 41.3300 -101.0350 81° East 498 573 34,000  Level FlightAware
03:42AM 41.3460 -100.9060 81° East 498 573 34,000  Level FlightAware
03:43AM 41.3580 -100.8030 81° East 498 573 34,000  Level FlightAware
03:43AM 41.3700 -100.7000 81° East 498 573 34,000  Level FlightAware
03:44AM 41.3820 -100.5970 81° East 498 573 34,000  Level FlightAware
03:45AM 41.3950 -100.4940 80° East 498 573 34,000  Level FlightAware
03:45AM 41.4070 -100.3910 81° East 498 573 34,000  Level FlightAware
03:46AM 41.4220 -100.2620 81° East 498 573 34,000  Level FlightAware
03:47AM 41.4340 -100.1580 81° East 498 573 34,000  Level FlightAware
03:47AM 41.4470 -100.0550 80° East 498 573 34,000  Level FlightAware
03:48AM 41.4590 -99.9520 81° East 498 573 34,000  Level FlightAware
03:49AM 41.4725 -99.6303 81° East 476 548 34,000  Level Denver Center
03:50AM 41.4894 -99.4564 83° East 473 544 34,000  Level Denver Center
03:51AM 41.5061 -99.2839 83° East 468 539 34,000  Level Denver Center
03:52AM 41.5214 -99.1119 83° East 465 535 34,000  Level Denver Center
03:53AM 41.5378 -98.9400 83° East 463 533 34,000  Level Denver Center
03:54AM 41.5525 -98.7711 83° East 457 526 34,000  Level Denver Center
03:55AM 41.5681 -98.6011 83° East 456 525 34,000  Level Denver Center
03:56AM 41.5819 -98.4311 84° East 457 526 34,000  Level Denver Center
03:57AM 41.5967 -98.2622 83° East 457 526 34,000  Level Minneapolis Center
03:58AM 41.6117 -98.0886 83° East 461 531 34,000  Level Minneapolis Center
03:59AM 41.6256 -97.9183 84° East 461 531 34,000  Level Minneapolis Center
04:00AM 41.6392 -97.7467 84° East 463 533 34,000  Level Minneapolis Center
04:01AM 41.6514 -97.5731 85° East 466 536 34,000  Level Minneapolis Center
04:02AM 41.6667 -97.3997 83° East 467 537 34,000  Level Minneapolis Center
04:03AM 41.6800 -97.2286 84° East 466 536 34,000  Level Minneapolis Center
04:04AM 41.6922 -97.0558 85° East 466 536 34,000  Level Minneapolis Center
04:05AM 41.7050 -96.8850 84° East 464 534 34,000  Level Minneapolis Center
04:06AM 41.7175 -96.7136 84° East 463 533 34,000  Level Minneapolis Center
04:07AM 41.7292 -96.5422 85° East 461 531 34,000  Level Minneapolis Center
04:08AM 41.7417 -96.3700 84° East 462 532 34,000  Level Minneapolis Center
04:09AM 41.7528 -96.1969 85° East 463 533 34,000  Level Minneapolis Center
04:15AM 41.8150 -95.1840 85° East 461 531 34,000  Level FlightAware
04:15AM 41.8220 -95.0570 86° East 460 529 34,000  Level FlightAware
04:16AM 41.8300 -94.9270 85° East 460 529 34,000  Level FlightAware
04:17AM 41.8360 -94.8130 86° East 459 528 34,000  Level FlightAware
04:18AM 41.8420 -94.6980 86° East 459 528 34,000  Level FlightAware
04:18AM 41.8490 -94.5730 86° East 459 528 34,000  Level FlightAware
04:19AM 41.8550 -94.4580 86° East 458 527 34,000  Level FlightAware
04:20AM 41.8600 -94.3410 87° East 458 527 34,000  Level FlightAware
04:20AM 41.8670 -94.2190 86° East 456 525 34,000  Level FlightAware
04:21AM 41.8720 -94.1060 87° East 455 524 34,000  Level FlightAware
04:22AM 41.8780 -93.9760 86° East 455 524 34,000  Level FlightAware
04:22AM 41.8830 -93.8640 87° East 455 524 34,000  Level FlightAware
04:23AM 41.8890 -93.7510 86° East 455 524 34,000  Level FlightAware
04:24AM 41.8940 -93.6290 87° East 454 522 34,000  Level FlightAware
04:25AM 41.8990 -93.5140 87° East 455 524 34,000  Level FlightAware
04:25AM 41.9040 -93.4030 86° East 455 524 34,000  Level FlightAware
04:26AM 41.9090 -93.2780 87° East 455 524 34,000  Level FlightAware
04:27AM 41.9130 -93.1640 87° East 456 525 34,000  Level FlightAware
04:27AM 41.9180 -93.0520 87° East 456 525 34,000  Level FlightAware
04:28AM 41.9230 -92.9200 87° East 457 526 34,000  Level FlightAware
04:29AM 41.9270 -92.8050 87° East 457 526 34,000  Level FlightAware
04:29AM 41.9310 -92.6970 87° East 459 528 34,000  Level FlightAware
04:30AM 41.9360 -92.5680 87° East 460 529 34,000  Level FlightAware
04:31AM 41.9400 -92.4500 87° East 460 529 34,000  Level FlightAware
04:32AM 41.9440 -92.3270 87° East 461 531 34,000  Level FlightAware
04:32AM 41.9470 -92.2120 88° East 461 531 34,000  Level FlightAware
04:33AM 41.9510 -92.0980 87° East 459 528 34,000  Level FlightAware
04:34AM 41.9550 -91.9670 88° East 459 528 34,000  Level FlightAware
04:34AM 41.9570 -91.8800 88° East 459 528 34,000  Level FlightAware
04:35AM 41.9600 -91.7680 88° East 459 528 34,000  Level FlightAware
04:35AM 41.9640 -91.6530 87° East 458 527 34,000  Level FlightAware
04:36AM 41.9670 -91.5310 88° East 457 526 34,000  Level FlightAware
04:37AM 41.9690 -91.4290 88° East 457 526 34,000  Level FlightAware
04:38AM 41.9730 -91.2860 88° East 456 525 34,000  Level FlightAware
04:38AM 41.9750 -91.1750 89° East 456 525 34,000  Level FlightAware
04:39AM 41.9780 -91.0450 88° East 454 522 34,000  Level FlightAware
04:40AM 41.9800 -90.9370 89° East 453 521 34,000  Level FlightAware
04:40AM 41.9820 -90.8490 88° East 451 519 34,000  Level FlightAware
04:41AM 41.9840 -90.7400 89° East 452 520 34,000  Level FlightAware
04:42AM 41.9860 -90.6250 89° East 451 519 34,000  Level FlightAware
04:42AM 41.9890 -90.5010 88° East 452 520 34,000  Level FlightAware
04:43AM 41.9900 -90.3800 89° East 449 517 34,000  Level FlightAware
04:44AM 41.9920 -90.2630 89° East 443 510 34,000  Level FlightAware
04:44AM 41.9940 -90.1420 89° East 444 511 34,000  Level FlightAware
04:45AM 41.9950 -90.0300 89° East 445 512 34,000  Level FlightAware
04:46AM 41.9970 -89.9210 89° East 446 513 34,000  Level FlightAware
04:47AM 41.9980 -89.7930 89° East 447 514 34,000  Level FlightAware
04:47AM 41.9990 -89.6880 89° East 447 514 34,000  Level FlightAware
04:48AM 42.0000 -89.5730 89° East 443 510 34,000  Level FlightAware
04:49AM 42.0010 -89.4510 89° East 443 510 34,000  Level FlightAware
04:49AM 42.0020 -89.3410 89° East 444 511 34,000  Level FlightAware
04:50AM 42.0030 -89.2150 89° East 444 511 34,000  Level FlightAware
04:51AM 42.0030 -89.1040 90° East 443 510 34,000  Level FlightAware
04:51AM 42.0040 -89.0000 89° East 443 510 34,000  Level FlightAware
04:52AM 42.0040 -88.8750 90° East 442 509 34,000  Level FlightAware
04:53AM 42.0040 -88.7650 90° East 440 506 34,000  Level FlightAware
04:53AM 42.0040 -88.6690 90° East 439 505 34,000  Level FlightAware
04:54AM 42.0040 -88.5480 90° East 437 503 34,000  Level FlightAware
04:55AM 42.0040 -88.4450 90° East 436 502 34,000  Level FlightAware
04:56AM 42.0040 -88.3040 90° East 434 499 34,000  Level FlightAware
04:56AM 42.0040 -88.1990 90° East 433 498 34,000  Level FlightAware
04:57AM 42.0030 -88.0740 91° East 432 497 34,000  Level FlightAware
04:58AM 42.0030 -87.9710 90° East 433 498 34,000  Level FlightAware
04:58AM 42.0020 -87.8490 91° East 434 499 34,000  Level FlightAware
04:59AM 42.0010 -87.7420 91° East 435 501 34,000  Level FlightAware
05:00AM 42.0000 -87.6320 91° East 435 501 34,000  Level FlightAware
05:00AM 41.9990 -87.5260 91° East 436 502 34,000  Level FlightAware
05:01AM 41.9980 -87.4010 91° East 436 502 34,000  Level FlightAware
05:02AM 41.9970 -87.2940 91° East 436 502 34,000  Level FlightAware
05:03AM 41.9960 -87.1740 91° East 436 502 34,000  Level FlightAware
05:03AM 41.9940 -87.0660 91° East 433 498 34,000  Level FlightAware
05:04AM 41.9930 -86.9600 91° East 433 498 34,000  Level FlightAware
05:05AM 41.9910 -86.8350 91° East 434 499 34,000  Level FlightAware
05:05AM 41.9890 -86.7350 92° East 433 498 34,000  Level FlightAware
05:06AM 41.9880 -86.6260 91° East 434 499 34,000  Level FlightAware
05:07AM 41.9860 -86.5090 91° East 436 502 34,000  Level FlightAware
05:07AM 41.9840 -86.3990 91° East 437 503 34,000  Level FlightAware
05:08AM 41.9810 -86.2710 92° East 439 505 34,000  Level FlightAware
05:09AM 41.9790 -86.1650 91° East 439 505 34,000  Level FlightAware
05:10AM 41.9760 -86.0460 92° East 438 504 34,000  Level FlightAware
05:10AM 41.9740 -85.9340 91° East 436 502 34,000  Level FlightAware
05:11AM 41.9720 -85.8410 92° East 435 501 34,000  Level FlightAware
05:12AM 41.9690 -85.7180 92° East 433 498 34,000  Level FlightAware
05:12AM 41.9660 -85.6000 92° East 432 497 34,000  Level FlightAware
05:13AM 41.9620 -85.4760 92° East 431 496 34,000  Level FlightAware
05:14AM 41.9590 -85.3700 92° East 431 496 34,000  Level FlightAware
05:14AM 41.9560 -85.2630 92° East 432 497 34,000  Level FlightAware
05:15AM 41.9530 -85.1380 92° East 433 498 34,000  Level FlightAware
05:16AM 41.9490 -85.0210 93° East 436 502 34,000  Level FlightAware
05:17AM 41.9460 -84.9240 92° East 438 504 34,000  Level FlightAware
05:17AM 41.9420 -84.8040 93° East 439 505 34,000  Level FlightAware
05:18AM 41.9390 -84.6940 92° East 440 506 34,000  Level FlightAware
05:19AM 41.9340 -84.5750 93° East 441 507 34,000  Level FlightAware
05:19AM 41.9300 -84.4600 93° East 442 509 34,000  Level FlightAware
05:20AM 41.9260 -84.3500 93° East 443 510 34,000  Level FlightAware
05:21AM 41.9220 -84.2450 93° East 443 510 34,000  Level FlightAware
05:21AM 41.9180 -84.1260 93° East 442 509 34,000  Level FlightAware
05:22AM 41.9130 -84.0110 93° East 441 507 34,000  Level FlightAware
05:23AM 41.9090 -83.8910 93° East 441 507 34,000  Level FlightAware
05:24AM 41.9040 -83.7780 93° East 440 506 34,000  Level FlightAware
05:24AM 41.8990 -83.6580 93° East 440 506 34,000  Level FlightAware
05:25AM 41.8940 -83.5540 94° East 441 507 34,000  Level FlightAware
05:26AM 41.8890 -83.4470 94° East 441 507 34,000  Level FlightAware
05:26AM 41.8840 -83.3170 93° East 442 509 34,000  Level FlightAware
05:27AM 41.8780 -83.2000 94° East 443 510 34,000  Level FlightAware
05:28AM 41.8730 -83.0910 93° East 444 511 34,000  Level FlightAware
05:28AM 41.8680 -82.9780 93° East 446 513 34,000  Level FlightAware
05:29AM 41.8620 -82.8640 94° East 448 516 34,000  Level FlightAware
05:30AM 41.8560 -82.7390 94° East 449 517 34,000  Level FlightAware
05:30AM 41.8510 -82.6450 94° East 449 517 34,000  Level FlightAware
05:31AM 41.8430 -82.4890 94° East 452 520 34,000  Level FlightAware
05:32AM 41.8370 -82.3770 94° East 454 522 34,000  Level FlightAware
05:33AM 41.8310 -82.2650 94° East 456 525 34,000  Level FlightAware
05:33AM 41.8240 -82.1490 95° East 457 526 34,000  Level FlightAware
05:34AM 41.8170 -82.0350 95° East 458 527 34,000  Level FlightAware
05:35AM 41.8110 -81.9270 94° East 458 527 34,000  Level FlightAware
05:35AM 41.8070 -81.8530 94° East 457 526 34,000  Level FlightAware
05:36AM 41.8000 -81.7290 94° East 458 527 34,000  Level FlightAware
05:37AM 41.7920 -81.5980 95° East 457 526 34,000  Level FlightAware
05:37AM 41.7850 -81.4860 95° East 456 525 34,000  Level FlightAware
05:38AM 41.7780 -81.3810 95° East 456 525 34,000  Level FlightAware
05:39AM 41.7700 -81.2510 95° East 455 524 34,000  Level FlightAware
05:39AM 41.7630 -81.1390 95° East 454 522 34,000  Level FlightAware
05:40AM 41.7550 -81.0230 95° East 452 520 34,000  Level FlightAware
05:41AM 41.7480 -80.9110 95° East 452 520 34,000  Level FlightAware
05:41AM 41.7400 -80.7890 95° East 453 521 34,000  Level FlightAware
05:42AM 41.7310 -80.6650 96° East 454 522 34,000  Level FlightAware
05:43AM 41.7230 -80.5500 95° East 455 524 34,000  Level FlightAware
05:44AM 41.7160 -80.4420 95° East 455 524 34,000  Level FlightAware
05:44AM 41.7060 -80.3120 96° East 457 526 34,000  Level FlightAware
05:45AM 41.6980 -80.1990 95° East 458 527 34,000  Level FlightAware
05:46AM 41.6890 -80.0740 95° East 459 528 34,000  Level FlightAware
05:46AM 41.6800 -79.9600 96° East 461 531 34,000  Level FlightAware
05:47AM 41.6710 -79.8370 96° East 462 532 34,000  Level FlightAware
05:48AM 41.6630 -79.7340 96° East 462 532 34,000  Level FlightAware
05:48AM 41.6530 -79.6050 96° East 463 533 34,000  Level FlightAware
05:49AM 41.6430 -79.4790 96° East 464 534 34,000  Level FlightAware
05:50AM 41.6360 -79.3870 96° East 464 534 34,000  Level FlightAware
05:51AM 41.6250 -79.2560 96° East 464 534 34,000  Level FlightAware
05:51AM 41.6150 -79.1300 96° East 463 533 34,000  Level FlightAware
05:52AM 41.6050 -79.0110 96° East 463 533 34,000  Level FlightAware
05:53AM 41.5950 -78.8980 97° East 463 533 34,000  Level FlightAware
05:53AM 41.5840 -78.7650 96° East 465 535 34,000  Level FlightAware
05:54AM 41.5730 -78.6410 97° East 466 536 34,000  Level FlightAware
05:55AM 41.5630 -78.5240 96° East 466 536 34,000  Level FlightAware
05:55AM 41.5530 -78.4160 97° East 466 536 34,000  Level FlightAware
05:56AM 41.5420 -78.2850 96° East 466 536 34,000  Level FlightAware
06:01AM 41.4383 -77.4682 99° East 467 537 34,000  Level FlightAware ADS-B
06:02AM 41.4137 -77.3600 107° East 472 543 34,000  Level FlightAware ADS-B
06:02AM 41.3947 -77.2763 107° East 471 542 34,000  Level FlightAware ADS-B
06:03AM 41.3751 -77.1896 107° East 470 541 34,000  Level FlightAware ADS-B
06:03AM 41.3558 -77.1048 107° East 470 541 34,000  Level FlightAware ADS-B
06:04AM 41.3360 -77.0176 107° East 469 540 34,000  Level FlightAware ADS-B
06:04AM 41.3170 -76.9345 107° East 468 539 34,000  Level FlightAware ADS-B
06:05AM 41.2979 -76.8515 107° East 468 539 34,000  Level FlightAware ADS-B
06:05AM 41.2789 -76.7692 107° East 468 539 34,000  Level FlightAware ADS-B
06:06AM 41.2595 -76.6862 107° East 468 539 34,000 -240 Level FlightAware ADS-B
06:06AM 41.2402 -76.6038 107° East 468 539 33,800 -720 Descending FlightAware ADS-B
06:07AM 41.2211 -76.5213 107° East 464 534 33,300 -1,980 Descending FlightAware ADS-B
06:07AM 41.2019 -76.4393 107° East 462 532 31,800 -3,180 Descending FlightAware ADS-B
06:08AM 41.1823 -76.3567 107° East 464 534 30,100 -3,480 Descending FlightAware ADS-B
06:08AM 41.1629 -76.2742 107° East 464 534 28,300 -3,060 Descending FlightAware ADS-B
06:09AM 41.1437 -76.1933 107° East 455 524 27,000 -2,640 Descending FlightAware ADS-B
06:09AM 41.1244 -76.1142 108° East 443 510 25,700 -2,700 Descending FlightAware ADS-B
06:10AM 41.1061 -76.0376 108° East 435 501 24,300 -2,940 Descending FlightAware ADS-B
06:10AM 41.0881 -75.9612 107° East 430 495 22,800 -2,760 Descending FlightAware ADS-B
06:11AM 41.0702 -75.8858 107° East 421 484 21,500 -2,580 Descending FlightAware ADS-B
06:11AM 41.0517 -75.8082 108° East 408 470 20,100 -2,820 Descending FlightAware ADS-B
06:12AM 41.0341 -75.7349 108° East 404 465 18,600 -3,000 Descending FlightAware ADS-B
06:12AM 41.0168 -75.6632 108° East 403 464 17,100 -2,700 Descending FlightAware ADS-B
06:13AM 40.9999 -75.5932 108° East 394 453 15,900 -2,400 Descending FlightAware ADS-B
06:13AM 40.9831 -75.5250 108° East 384 442 14,700 -2,400 Descending FlightAware ADS-B
06:14AM 40.9667 -75.4583 108° East 377 434 13,500 -2,520 Descending FlightAware ADS-B
06:14AM 40.9505 -75.3926 108° East 374 430 12,200 -2,220 Descending FlightAware ADS-B
06:15AM 40.9318 -75.3184 108° East 347 399 11,100 -1,680 Descending FlightAware ADS-B
06:15AM 40.9162 -75.2547 108° East 320 368 10,300 -1,440 Descending FlightAware ADS-B
06:16AM 40.9117 -75.2382 110° East 314 361 10,100 -1,380 Descending FlightAware ADS-B
06:16AM 40.9064 -75.2228 114° Southeast 308 354 9,900 -1,200 Descending FlightAware ADS-B
06:16AM 40.9026 -75.2134 118° Southeast 304 350 9,800 -900 Descending FlightAware ADS-B
06:16AM 40.8925 -75.1890 119° Southeast 294 338 9,600 -960 Descending FlightAware ADS-B
06:16AM 40.8821 -75.1638 119° Southeast 281 323 9,300 -1,140 Descending FlightAware ADS-B
06:17AM 40.8723 -75.1395 118° Southeast 275 316 9,000 -1,200 Descending FlightAware ADS-B
06:17AM 40.8631 -75.1166 118° Southeast 271 312 8,700 -600 Descending FlightAware ADS-B
06:17AM 40.8539 -75.0936 118° Southeast 269 310 8,700  Level FlightAware ADS-B
06:17AM 40.8448 -75.0713 118° Southeast 269 310 8,700  Level FlightAware ADS-B
06:18AM 40.8358 -75.0495 119° Southeast 271 312 8,700  Level FlightAware ADS-B
06:18AM 40.8241 -75.0211 119° Southeast 272 313 8,700 -360 Level FlightAware ADS-B
06:18AM 40.8149 -74.9988 119° Southeast 273 314 8,500 -780 Descending FlightAware ADS-B
06:19AM 40.8057 -74.9764 118° Southeast 271 312 8,300 -1,020 Descending FlightAware ADS-B
06:19AM 40.7968 -74.9549 119° Southeast 267 307 8,000 -1,320 Descending FlightAware ADS-B
06:19AM 40.7870 -74.9313 119° Southeast 265 305 7,600 -1,500 Descending FlightAware ADS-B
06:19AM 40.7779 -74.9092 119° Southeast 264 304 7,200 -1,380 Descending FlightAware ADS-B
06:20AM 40.7685 -74.8862 118° Southeast 264 304 6,900 -1,020 Descending FlightAware ADS-B
06:20AM 40.7602 -74.8662 119° Southeast 261 300 6,700 -420 Descending FlightAware ADS-B
06:20AM 40.7516 -74.8450 118° Southeast 259 298 6,700 -600 Level FlightAware ADS-B
06:20AM 40.7428 -74.8235 118° Southeast 257 296 6,400 -1,500 Descending FlightAware ADS-B
06:21AM 40.7335 -74.8010 119° Southeast 262 302 5,900 -1,380 Descending FlightAware ADS-B
06:21AM 40.7218 -74.7725 118° Southeast 255 293 5,600 -1,200 Descending FlightAware ADS-B
06:21AM 40.7132 -74.7519 119° Southeast 254 292 5,200 -1,440 Descending FlightAware ADS-B
06:21AM 40.7124 -74.7497 116° Southeast 258 297 5,200 -1,380 Level FlightAware ADS-B
06:22AM 40.7035 -74.7281 119° Southeast 251 289 4,800 -1,080 Descending FlightAware ADS-B
06:22AM 40.6968 -74.7119 119° Southeast 251 289 4,700 -360 Descending FlightAware ADS-B
06:22AM 40.6943 -74.7057 118° Southeast 250 288 4,700  Level FlightAware ADS-B
06:22AM 40.6854 -74.6842 119° Southeast 250 288 4,700  Level FlightAware ADS-B
06:22AM 40.6818 -74.6755 119° Southeast 250 288 4,700  Level FlightAware ADS-B
06:22AM 40.6768 -74.6635 119° Southeast 250 288 4,700  Level FlightAware ADS-B
06:23AM 40.6672 -74.6406 119° Southeast 250 288 4,700  Level FlightAware ADS-B
06:23AM 40.6662 -74.6382 119° Southeast 250 288 4,700  Level FlightAware ADS-B
06:23AM 40.6590 -74.6211 119° Southeast 229 264 4,700  Level FlightAware ADS-B
06:23AM 40.6515 -74.6028 118° Southeast 223 257 4,700 -480 Level FlightAware ADS-B
06:24AM 40.6386 -74.5714 118° Southeast 221 254 4,400 -660 Descending FlightAware ADS-B
06:24AM 40.6284 -74.5468 119° Southeast 222 255 4,200 -720 Descending FlightAware ADS-B
06:24AM 40.6208 -74.5289 119° Southeast 221 254 4,000 -600 Descending FlightAware ADS-B
06:24AM 40.6133 -74.5111 119° Southeast 218 251 3,900 -600 Descending FlightAware ADS-B
06:25AM 40.6059 -74.4933 119° Southeast 217 250 3,700 -420 Descending FlightAware ADS-B
06:25AM 40.5987 -74.4759 119° Southeast 213 245 3,700 -240 Level FlightAware ADS-B
06:25AM 40.5915 -74.4583 118° Southeast 207 238 3,600 -420 Descending FlightAware ADS-B
06:25AM 40.5849 -74.4424 119° Southeast 195 224 3,500 -780 Descending FlightAware ADS-B
06:26AM 40.5782 -74.4261 118° Southeast 191 220 3,200 -1,200 Descending FlightAware ADS-B
06:26AM 40.5719 -74.4105 118° Southeast 188 216 2,900 -1,440 Descending FlightAware ADS-B
06:26AM 40.5673 -74.4000 120° Southeast 185 213 2,600 -1,380 Descending FlightAware ADS-B
06:26AM 40.5627 -74.3895 120° Southeast 184 212 2,400 -1,320 Descending FlightAware ADS-B
06:27AM 40.5494 -74.3578 119° Southeast 188 216 1,700 -1,140 Descending FlightAware ADS-B
06:27AM 40.5467 -74.3513 119° Southeast 187 215 1,700  Level FlightAware ADS-B
06:27AM 40.5410 -74.3377 119° Southeast 188 216 1,700  Level FlightAware ADS-B
06:27AM 40.5334 -74.3189 118° Southeast 181 208 1,700  Level FlightAware ADS-B
06:28AM 40.5327 -74.3156 106° East 179 206 1,700  Level FlightAware ADS-B
06:28AM 40.5324 -74.3093 94° East 174 200 1,700  Level FlightAware ADS-B
06:28AM 40.5327 -74.3060 83° East 172 198 1,700  Level FlightAware ADS-B
06:28AM 40.5361 -74.2910 73° East 170 196 1,700  Level FlightAware ADS-B
06:28AM 40.5373 -74.2883 60° Northeast 168 193 1,700  Level FlightAware ADS-B
06:28AM 40.5441 -74.2742 58° Northeast 168 193 1,700  Level FlightAware ADS-B
06:29AM 40.5505 -74.2609 58° Northeast 168 193 1,700  Level FlightAware ADS-B
06:29AM 40.5520 -74.2581 55° Northeast 169 194 1,700  Level FlightAware ADS-B
06:29AM 40.5543 -74.2547 48° Northeast 168 193 1,700  Level FlightAware ADS-B
06:29AM 40.5581 -74.2512 35° Northeast 168 193 1,700  Level FlightAware ADS-B
06:29AM 40.5610 -74.2490 30° Northeast 169 194 1,700  Level FlightAware ADS-B
06:29AM 40.5749 -74.2394 28° Northeast 169 194 1,700  Level FlightAware ADS-B
06:29AM 40.5789 -74.2367 27° Northeast 170 196 1,700  Level FlightAware ADS-B
06:30AM 40.5901 -74.2296 26° Northeast 170 196 1,700 -540 Level FlightAware ADS-B
06:30AM 40.6036 -74.2211 26° Northeast 175 201 1,400 -840 Descending FlightAware ADS-B
06:30AM 40.6155 -74.2137 25° Northeast 163 188 1,200 -780 Descending FlightAware ADS-B
06:30AM 40.6243 -74.2080 26° Northeast 153 176 1,000 -900 Descending FlightAware ADS-B
06:31AM 40.6333 -74.2023 26° Northeast 143 165 800 -840 Descending FlightAware ADS-B
06:31AM 40.6425 -74.1965 26° Northeast 140 161 600 -780 Descending FlightAware ADS-B
06:31AM 40.6514 -74.1909 26° Northeast 140 161 400 -780 Descending FlightAware ADS-B
06:31AM 40.6604 -74.1852 26° Northeast 139 160 200 -840 Descending FlightAware ADS-B